»·PEaware :: ASA3338 KBOI-KPDX

ASA3338 :: KBOI-KPDX

FLIGHT INFORMATION

Flight Status: Arrived
Operator:
Alaska Airlines
More flights by this operator :: More flights under this callsign
Pilot: Brice B. (24277)
Aircraft: BOEING 737-800
(B738)
More flights by this aircraft type
Origin: KBOI Boise Air Terminal/Gowen
United States
Destination: KPDX Portland Intl
United States
More flights between these airports :: More routes between these airports
Route: SAILL BUEEL JOTBA HHOOD4
File this flight plan on PilotEdge
Remarks:
Altitude:
(Current/Filed)
30,000ft
Speed:
(Current/Filed)
520kts
Departed: 12-Mar-20 06:22 PM
Arrived: 12-Mar-20 07:22 PM
Distance/Time
Traveled:
297nm/1:00
Distance/Time
To Go:
Arrived

Flight Plot

Page will automatically refresh every two minutes.


Map Options




Map Legend


Flown Route
Filed Route
Departure Airport
Arrival Airport
Navaid (VOR, NDB)
Fix

Horizontal Profiles

Position Reports

Time Latitude Longitude Heading Altitude Ground
Speed
12-Mar-20 17:53 43.567745 -116.224122 120 2850ft 0kts
12-Mar-20 17:54 43.567745 -116.224122 120 2850ft 0kts
12-Mar-20 17:55 43.567745 -116.224122 120 2850ft 0kts
12-Mar-20 17:56 43.567745 -116.224122 120 2850ft 0kts
12-Mar-20 17:57 43.567745 -116.224122 120 2850ft 0kts
12-Mar-20 17:58 43.567745 -116.224122 120 2850ft 0kts
12-Mar-20 17:59 43.567745 -116.224122 120 2850ft 0kts
12-Mar-20 18:00 43.567745 -116.224122 120 2850ft 0kts
12-Mar-20 18:01 43.567745 -116.224122 120 2850ft 0kts
12-Mar-20 18:02 43.567745 -116.224122 120 2850ft 0kts
12-Mar-20 18:03 43.567745 -116.224122 120 2850ft 0kts
12-Mar-20 18:04 43.567745 -116.224122 120 2850ft 0kts
12-Mar-20 18:05 43.567745 -116.224122 120 2850ft 0kts
12-Mar-20 18:06 43.567745 -116.224122 120 2850ft 0kts
12-Mar-20 18:07 43.567745 -116.224122 120 2850ft 0kts
12-Mar-20 18:08 43.567745 -116.224122 120 2850ft 0kts
12-Mar-20 18:09 43.567745 -116.224122 120 2850ft 0kts
12-Mar-20 18:10 43.567745 -116.224122 120 2850ft 0kts
12-Mar-20 18:11 43.567745 -116.224122 120 2850ft 0kts
12-Mar-20 18:12 43.567790 -116.224228 120 2850ft 2kts
12-Mar-20 18:13 43.568210 -116.224376 205 2850ft 1kts
12-Mar-20 18:14 43.568215 -116.224373 205 2850ft 0kts
12-Mar-20 18:15 43.568212 -116.224375 205 2850ft 0kts
12-Mar-20 18:16 43.567078 -116.224185 118 2851ft 12kts
12-Mar-20 18:17 43.565260 -116.218873 115 2857ft 21kts
12-Mar-20 18:18 43.563054 -116.212423 115 2865ft 16kts
12-Mar-20 18:20 43.560782 -116.205755 115 2871ft 16kts
12-Mar-20 18:21 43.559503 -116.202506 168 2875ft 0kts
12-Mar-20 18:22 43.560205 -116.207647 296 2867ft 82kts
12-Mar-20 18:23 43.574578 -116.259685 284 4807ft 172kts
12-Mar-20 18:24 43.586690 -116.333876 286 6773ft 229kts
12-Mar-20 18:25 43.602672 -116.425219 286 9463ft 263kts
12-Mar-20 18:26 43.622103 -116.534165 286 11575ft 324kts
12-Mar-20 18:27 43.644148 -116.658162 285 14637ft 340kts
12-Mar-20 18:28 43.667110 -116.787313 286 15987ft 344kts
12-Mar-20 18:29 43.690108 -116.916546 286 17556ft 351kts
12-Mar-20 18:30 43.713666 -117.048969 286 20174ft 360kts
12-Mar-20 18:31 43.746812 -117.180555 296 22457ft 369kts
12-Mar-20 18:32 43.788935 -117.311105 294 24500ft 379kts
12-Mar-20 18:33 43.831434 -117.446682 294 26321ft 388kts
12-Mar-20 18:34 43.874782 -117.585364 295 27941ft 397kts
12-Mar-20 18:35 43.933661 -117.717042 302 29389ft 406kts
12-Mar-20 18:36 43.994935 -117.849827 301 30124ft 412kts
12-Mar-20 18:36 44.046096 -117.961194 301 30110ft 410kts
12-Mar-20 18:38 44.117391 -118.117109 301 30103ft 410kts
12-Mar-20 18:39 44.178528 -118.251478 301 30119ft 414kts
12-Mar-20 18:39 44.229827 -118.364690 301 30126ft 413kts
12-Mar-20 18:40 44.290940 -118.500156 301 30125ft 413kts
12-Mar-20 18:42 44.361184 -118.656646 301 30125ft 413kts
12-Mar-20 18:42 44.411804 -118.770099 301 30130ft 413kts
12-Mar-20 18:43 44.472509 -118.906565 301 30129ft 411kts
12-Mar-20 18:45 44.542314 -119.064298 301 30127ft 406kts
12-Mar-20 18:45 44.591780 -119.176580 301 30126ft 407kts
12-Mar-20 18:46 44.651096 -119.311803 301 30124ft 407kts
12-Mar-20 18:48 44.719939 -119.469537 301 30122ft 407kts
12-Mar-20 18:48 44.769049 -119.582587 301 30121ft 407kts
12-Mar-20 18:49 44.828019 -119.719063 301 30128ft 407kts
12-Mar-20 18:50 44.886718 -119.855509 301 30135ft 407kts
12-Mar-20 18:51 44.944950 -119.991434 301 30166ft 406kts
12-Mar-20 18:52 45.002877 -120.127295 301 30160ft 394kts
12-Mar-20 18:53 45.058514 -120.258524 300 30150ft 390kts
12-Mar-20 18:54 45.112943 -120.387393 300 29635ft 373kts
12-Mar-20 18:55 45.164409 -120.510013 300 27701ft 353kts
12-Mar-20 18:56 45.210634 -120.632819 299 25753ft 357kts
12-Mar-20 18:57 45.257890 -120.755781 298 23773ft 346kts
12-Mar-20 18:58 45.303312 -120.874073 299 21845ft 340kts
12-Mar-20 18:59 45.348020 -120.991013 299 19915ft 337kts
12-Mar-20 19:00 45.391894 -121.106416 299 17989ft 324kts
12-Mar-20 19:01 45.431788 -121.219811 289 16096ft 320kts
12-Mar-20 19:02 45.455329 -121.338309 288 14944ft 297kts
12-Mar-20 19:03 45.478023 -121.453335 288 14897ft 303kts
12-Mar-20 19:04 45.499734 -121.563227 289 14934ft 276kts
12-Mar-20 19:05 45.520552 -121.668953 288 14050ft 275kts
12-Mar-20 19:06 45.531834 -121.776273 276 12554ft 275kts
12-Mar-20 19:07 45.535631 -121.884532 276 11114ft 270kts
12-Mar-20 19:08 45.544489 -121.989073 288 9703ft 262kts
12-Mar-20 19:09 45.565478 -122.087810 288 8983ft 261kts
12-Mar-20 19:10 45.586139 -122.186935 288 8978ft 259kts
12-Mar-20 19:11 45.606676 -122.285993 288 8978ft 260kts
12-Mar-20 19:12 45.627143 -122.385662 288 8978ft 260kts
12-Mar-20 19:13 45.648717 -122.479862 296 8187ft 235kts
12-Mar-20 19:14 45.679381 -122.564232 295 6188ft 242kts
12-Mar-20 19:15 45.711565 -122.649531 297 4470ft 237kts
12-Mar-20 19:16 45.732601 -122.730060 251 3480ft 208kts
12-Mar-20 19:17 45.684385 -122.763592 174 3021ft 217kts
12-Mar-20 19:18 45.639625 -122.712396 113 2481ft 220kts
12-Mar-20 19:19 45.614869 -122.646311 119 961ft 163kts
12-Mar-20 19:20 45.595169 -122.596462 121 89ft 142kts
12-Mar-20 19:21 45.586242 -122.576710 270 40ft 12kts

Navigation Log

Ident Type
Flight plan parsing failed, navigation log unavailable